MAPA DE AEROPUERTO

INFORMACIÓN METAR y TAF

METAR FOR LEMD
ADDS - METARS form results

(0602 UTC 20 September 2021)
Data provider http://aviationweather.gov/metar/data/
 
METAR text: LEMD 200530Z 30001KT CAVOK 12/07 Q1021 NOSIG
Conditions at: LEMD (MADRID/BARAJAS , ES) observed 0530 UTC 20 September 2021
Temperature: 12.0°C (54°F)
Dewpoint: 7.0°C (45°F) [RH = 71%]
Pressure (altimeter): 30.15 inches Hg (1021.0 mb)
Winds: from the WNW (300 degrees) at 1 MPH (1 knots; 0.5 m/s)
Visibility: 6 or more miles (10+ km)
Ceiling: ceiling and visibility are OK
Clouds: unknown
Weather: no significant weather observed at this time

Forecast for: LEMD (MADRID/BARAJAS , ES)
Text: TAF LEMD 200500Z 2006/2112 02007KT CAVOK TX24/2015Z TN10/2106Z
Forecast period: 0600 UTC 20 September 2021 to 1200 UTC 21 September 2021
Forecast type: FROM: standard forecast or significant change
Winds: from the NNE (20 degrees) at 8 MPH (7 knots; 3.6 m/s)
Visibility: 6 or more miles (10+ km)
Ceiling: unknown
Clouds: missing
Weather: no significant weather forecast for this period
Text: PROB30
Forecast period: 1500 to 2200 UTC 20 September 2021
Forecast type: TEMPORARY: The following changes expected for less than half the time period
Winds: from the NNE (20 degrees) at 17 MPH (15 knots; 7.7 m/s)
gusting to 29 MPH (25 knots; 12.9 m/s)
Visibility: missing
Ceiling: unknown
Clouds: missing
Weather: no significant weather forecast for this period